Main page
METAR-TAF:

METAR-TAF

Airports :

Berlin Tegel Airport

Berlin, Germany

latitude: 52-34N, longitude: 013-19E, elevation: 37 m

Current weather observation

The report was made 36 minutes ago, at 07:20 UTC
Wind 3 kt from the East/Northeast, varying between North/Northeast and East
Temperature -5°C
Humidity 93%
Pressure 1018 hPa
Visibility 10 km or more
no clouds below 1500 m and no cumulonimbus

METAR: EDDT 200720Z 06003KT 030V100 CAVOK M05/M06 Q1018 TEMPO 1200 BCFG

Time: 08:56 (07:56 UTC)

Forecast

The report was made 2 hours and 56 minutes ago, at 05:00 UTC
Forecast valid from 20 at 06 UTC to 21 at 06 UTC
Wind 3 kt from the East
Visibility 10 km or more
no clouds below 1500 m and no cumulonimbus
Probability 30% :
Temporary
from 20 at 06 UTC to 20 at 09 UTC
Visibility: 1200 m
patches of fog
Becoming
from 20 at 18 UTC to 20 at 21 UTC
Visibility: 2000 m
Broken clouds at a height of 400 ft
mist

TAF: EDDT 200500Z 2006/2106 08003KT CAVOK PROB30 TEMPO 2006/2009 1200 BCFG BECMG 2018/2021 2000 BR BKN004

Weather observations and forecasts of more than 4000 airports (METAR and TAF reports).

The available stations are represented by yellow and red dots on the map.

Hover mouse over dot to see the name of the station.

Then click to see weather observations and forecasts.

To change the map : click on the green buttons with a black cross to zoom in, on the green button with a dash to zoom out, or on the green arrows for adjacent maps.


METAR-TAF: